Latest  Newer  Older  Last 2 hours slideshow  Last 24 hours slideshow  Refresh every 5 minutes 
Current image  Latest image  Rain/snow radar  Cloud coverage sat images 

All time is UTC (add 2 hours to UTC in wintertime, 3 hours to UTC in DST for Latvia local time)

2022/06/29 16:20 EVRA 291620Z 08003KT 050V130 9999 FEW040CB 24/19 Q1016 NOSIG
2022/06/29 16:20 EVLA 291620Z AUTO 30004KT 260V330 9999 FEW029/// BKN045/// 23/20 Q1016
2022/06/29 16:20 EVVA 291620Z AUTO 07007KT 040V100 9999 SCT019 SCT027 23/20 Q1016
2022/06/29 16:20 EYKA 291620Z VRB02KT 9999 VCTS FEW039 SCT050CB 28/20 Q1015
2022/06/29 16:20 EYPA 291620Z 26003KT 210V350 9999 FEW012 23/19 Q1016
2022/06/29 16:20 EYSA 291620Z 05007KT 360V060 9999 FEW021 BKN100 23/19 Q1016 NOSIG
2022/06/29 16:20 EYVI 291620Z 11006KT 080V150 9999 -SHRA VCTS BKN041CB 22/19 Q1016 TEMPO VRB30KT 1500 TSRA BKN015CB

2022/06/29 16:20 EEKE 291620Z 18003KT 120V230 9999 FEW032 25/20 Q1017
2022/06/29 16:20 EEPU 291620Z AUTO 07006KT 9999 NCD 27/18 Q1017
2022/06/29 16:20 EETN 291620Z 04004KT 9999 VCTS FEW030CB SCT045 26/21 Q1018 TEMPO 3000 TSRA
2022/06/29 16:20 EETU 291620Z AUTO 15004KT 110V200 9999 NCD 26/18 Q1018
   RIGA AIRPORT     EVRA               56 55N  023 58E   10   X     T          6 LV
   LIEPAJA INTL     EVLA        26406  56 31N  021 06E    4   X                8 LV
   VENTPILS         EVVA               57 21N  021 33E    6   X                8 LV
   KAUNAS           EYKA               54 54N  023 55E   77   X     T          6 LT
   PALANGA INTL     EYPA               55 55N  021 03E   10   X                6 LT
   SIAULIAI INTL    EYSA               55 54N  023 24E  135   X     T          6 LT
   VILNIUS INTL     EYVI        26730  54 38N  025 17E  197   X     T          6 LT
   KARDLA           EEKA        26116  58 59N  022 50E    4   X                8 EE
   KURESSAARE       EEKE               58 14N  022 31E    4   X                8 EE
   PARNU            EEPU               58 25N  024 28E   14   X                8 EE
   TALLINN          EETN        26038  59 24N  024 49E   40   X     T          8 EE
   TARTU            EETU               58 19N  026 41E   67   X                8 EE